sensor_id;sensor_type;location;lat;lon;timestamp;pressure;altitude;pressure_sealevel;temperature;humidity
34742;BME280;20968;42.696;23.360;2023-03-21T00:01:11;95077.09;;;14.94;48.45
34742;BME280;20968;42.696;23.360;2023-03-21T00:03:37;95069.53;;;14.89;48.82
34742;BME280;20968;42.696;23.360;2023-03-21T00:06:08;95067.53;;;14.84;49.20
34742;BME280;20968;42.696;23.360;2023-03-21T00:08:35;95074.31;;;14.83;49.49
34742;BME280;20968;42.696;23.360;2023-03-21T00:11:04;95070.78;;;14.88;49.28
34742;BME280;20968;42.696;23.360;2023-03-21T00:13:30;95067.78;;;14.92;48.82
34742;BME280;20968;42.696;23.360;2023-03-21T00:16:10;95060.94;;;14.93;49.23
34742;BME280;20968;42.696;23.360;2023-03-21T00:18:41;95076.28;;;15.05;49.20
34742;BME280;20968;42.696;23.360;2023-03-21T00:21:07;95064.44;;;15.04;49.17
34742;BME280;20968;42.696;23.360;2023-03-21T00:23:34;95077.03;;;15.05;49.17
34742;BME280;20968;42.696;23.360;2023-03-21T00:26:00;95061.44;;;15.02;49.00
34742;BME280;20968;42.696;23.360;2023-03-21T00:28:26;95064.19;;;15.02;49.12
34742;BME280;20968;42.696;23.360;2023-03-21T00:30:59;95061.97;;;14.95;48.84
34742;BME280;20968;42.696;23.360;2023-03-21T00:33:25;95066.47;;;14.98;48.76
34742;BME280;20968;42.696;23.360;2023-03-21T00:35:51;95075.78;;;15.01;49.47
34742;BME280;20968;42.696;23.360;2023-03-21T00:38:18;95072.00;;;14.98;49.16
34742;BME280;20968;42.696;23.360;2023-03-21T00:40:44;95076.06;;;14.97;49.47
34742;BME280;20968;42.696;23.360;2023-03-21T00:43:10;95077.09;;;14.94;49.14
34742;BME280;20968;42.696;23.360;2023-03-21T00:45:45;95075.06;;;14.89;49.14
34742;BME280;20968;42.696;23.360;2023-03-21T00:48:11;95073.81;;;14.90;49.38
34742;BME280;20968;42.696;23.360;2023-03-21T00:50:37;95066.53;;;14.87;49.38
34742;BME280;20968;42.696;23.360;2023-03-21T00:53:03;95068.00;;;14.88;49.54
34742;BME280;20968;42.696;23.360;2023-03-21T00:55:29;95063.75;;;14.87;49.39
34742;BME280;20968;42.696;23.360;2023-03-21T00:57:54;95066.00;;;14.89;49.20
34742;BME280;20968;42.696;23.360;2023-03-21T01:00:20;95062.50;;;14.83;49.02
34742;BME280;20968;42.696;23.360;2023-03-21T01:02:46;95058.94;;;14.82;49.59
34742;BME280;20968;42.696;23.360;2023-03-21T01:05:23;95063.25;;;14.83;49.18
34742;BME280;20968;42.696;23.360;2023-03-21T01:08:10;95067.78;;;14.81;49.74
34742;BME280;20968;42.696;23.360;2023-03-21T01:10:44;95067.78;;;14.81;49.55
34742;BME280;20968;42.696;23.360;2023-03-21T01:13:10;95068.56;;;14.76;49.39
34742;BME280;20968;42.696;23.360;2023-03-21T01:15:42;95053.47;;;14.72;49.72
34742;BME280;20968;42.696;23.360;2023-03-21T01:18:08;95057.22;;;14.74;49.59
34742;BME280;20968;42.696;23.360;2023-03-21T01:20:34;95049.44;;;14.73;49.77
34742;BME280;20968;42.696;23.360;2023-03-21T01:22:59;95050.91;;;14.74;49.95
34742;BME280;20968;42.696;23.360;2023-03-21T01:25:25;95049.69;;;14.64;49.73
34742;BME280;20968;42.696;23.360;2023-03-21T01:27:50;95049.44;;;14.67;49.75
34742;BME280;20968;42.696;23.360;2023-03-21T01:30:16;95037.88;;;14.58;50.05
34742;BME280;20968;42.696;23.360;2023-03-21T01:32:41;95049.69;;;14.58;50.28
34742;BME280;20968;42.696;23.360;2023-03-21T01:35:07;95046.66;;;14.56;49.62
34742;BME280;20968;42.696;23.360;2023-03-21T01:37:32;95054.25;;;14.50;50.44
34742;BME280;20968;42.696;23.360;2023-03-21T01:39:58;95056.56;;;14.19;50.22
34742;BME280;20968;42.696;23.360;2023-03-21T01:42:24;95043.44;;;14.03;50.81
34742;BME280;20968;42.696;23.360;2023-03-21T01:44:58;95049.72;;;13.87;51.43
34742;BME280;20968;42.696;23.360;2023-03-21T01:47:25;95051.47;;;13.74;51.58
34742;BME280;20968;42.696;23.360;2023-03-21T01:49:55;95049.72;;;13.82;51.79
34742;BME280;20968;42.696;23.360;2023-03-21T01:52:27;95051.22;;;13.66;52.24
34742;BME280;20968;42.696;23.360;2023-03-21T01:54:54;95045.38;;;13.48;51.13
34742;BME280;20968;42.696;23.360;2023-03-21T01:57:27;95042.56;;;13.21;53.16
34742;BME280;20968;42.696;23.360;2023-03-21T01:59:58;95046.09;;;13.37;53.03
34742;BME280;20968;42.696;23.360;2023-03-21T02:02:32;95038.53;;;13.27;52.66
34742;BME280;20968;42.696;23.360;2023-03-21T02:05:01;95042.09;;;13.38;52.47
34742;BME280;20968;42.696;23.360;2023-03-21T02:07:30;95057.97;;;13.43;51.88
34742;BME280;20968;42.696;23.360;2023-03-21T02:09:59;95057.94;;;13.38;52.20
34742;BME280;20968;42.696;23.360;2023-03-21T02:12:26;95043.34;;;13.43;52.43
34742;BME280;20968;42.696;23.360;2023-03-21T02:14:52;95049.16;;;13.50;52.45
34742;BME280;20968;42.696;23.360;2023-03-21T02:20:16;95037.63;;;13.63;52.00
34742;BME280;20968;42.696;23.360;2023-03-21T02:22:55;95042.91;;;13.77;52.49
34742;BME280;20968;42.696;23.360;2023-03-21T02:28:10;95038.13;;;13.83;51.48
34742;BME280;20968;42.696;23.360;2023-03-21T02:41:46;95039.66;;;13.73;51.44
34742;BME280;20968;42.696;23.360;2023-03-21T02:44:25;95038.63;;;13.65;51.84
34742;BME280;20968;42.696;23.360;2023-03-21T02:46:59;95029.84;;;13.72;51.57
34742;BME280;20968;42.696;23.360;2023-03-21T02:49:42;95044.66;;;13.69;51.88
34742;BME280;20968;42.696;23.360;2023-03-21T02:52:12;95042.41;;;13.73;51.40
34742;BME280;20968;42.696;23.360;2023-03-21T02:54:39;95041.91;;;13.75;51.86
34742;BME280;20968;42.696;23.360;2023-03-21T02:57:06;95034.34;;;13.75;51.86
34742;BME280;20968;42.696;23.360;2023-03-21T02:59:33;95041.16;;;13.80;52.00
34742;BME280;20968;42.696;23.360;2023-03-21T03:01:59;95033.09;;;13.71;51.70
34742;BME280;20968;42.696;23.360;2023-03-21T03:04:27;95034.13;;;13.73;51.55
34742;BME280;20968;42.696;23.360;2023-03-21T03:17:30;95039.59;;;13.57;52.51
34742;BME280;20968;42.696;23.360;2023-03-21T03:23:24;95044.91;;;13.55;52.64
34742;BME280;20968;42.696;23.360;2023-03-21T03:26:32;95043.16;;;13.57;52.22
34742;BME280;20968;42.696;23.360;2023-03-21T03:29:06;95035.06;;;13.48;52.17
34742;BME280;20968;42.696;23.360;2023-03-21T03:31:36;95032.03;;;13.46;51.98
34742;BME280;20968;42.696;23.360;2023-03-21T03:34:09;95036.28;;;13.36;52.17
34742;BME280;20968;42.696;23.360;2023-03-21T03:36:41;95041.09;;;13.41;52.25
34742;BME280;20968;42.696;23.360;2023-03-21T03:39:09;95038.56;;;13.32;52.42
34742;BME280;20968;42.696;23.360;2023-03-21T03:42:08;95034.28;;;13.31;51.90
34742;BME280;20968;42.696;23.360;2023-03-21T03:44:38;95036.03;;;13.29;52.54
34742;BME280;20968;42.696;23.360;2023-03-21T03:47:07;95043.34;;;13.37;53.00
34742;BME280;20968;42.696;23.360;2023-03-21T03:49:40;95057.66;;;13.30;52.66
34742;BME280;20968;42.696;23.360;2023-03-21T03:52:30;95051.56;;;13.16;53.36
34742;BME280;20968;42.696;23.360;2023-03-21T03:54:58;95045.06;;;13.19;52.88
34742;BME280;20968;42.696;23.360;2023-03-21T03:57:25;95040.53;;;13.21;52.61
34742;BME280;20968;42.696;23.360;2023-03-21T03:59:51;95041.03;;;13.25;52.83
34742;BME280;20968;42.696;23.360;2023-03-21T04:02:17;95049.09;;;13.23;52.59
34742;BME280;20968;42.696;23.360;2023-03-21T04:04:44;95058.66;;;13.27;52.76
34742;BME280;20968;42.696;23.360;2023-03-21T04:07:11;95054.88;;;13.25;52.98
34742;BME280;20968;42.696;23.360;2023-03-21T04:09:37;95041.28;;;13.21;53.00
34742;BME280;20968;42.696;23.360;2023-03-21T04:12:02;95049.06;;;13.18;53.17
34742;BME280;20968;42.696;23.360;2023-03-21T04:14:28;95041.53;;;13.13;52.98
34742;BME280;20968;42.696;23.360;2023-03-21T04:16:53;95051.84;;;13.18;53.31
34742;BME280;20968;42.696;23.360;2023-03-21T04:19:19;95046.03;;;13.16;52.90
34742;BME280;20968;42.696;23.360;2023-03-21T04:21:45;95055.88;;;13.22;53.40
34742;BME280;20968;42.696;23.360;2023-03-21T04:24:12;95038.28;;;13.20;52.16
34742;BME280;20968;42.696;23.360;2023-03-21T04:26:38;95033.72;;;13.17;53.10
34742;BME280;20968;42.696;23.360;2023-03-21T04:29:04;95041.78;;;13.20;53.19
34742;BME280;20968;42.696;23.360;2023-03-21T04:31:31;95037.03;;;13.21;52.83
34742;BME280;20968;42.696;23.360;2023-03-21T04:33:59;95033.22;;;13.18;52.95
34742;BME280;20968;42.696;23.360;2023-03-21T04:36:25;95025.66;;;13.08;52.65
34742;BME280;20968;42.696;23.360;2023-03-21T04:39:04;95025.41;;;13.06;52.73
34742;BME280;20968;42.696;23.360;2023-03-21T04:41:34;95035.47;;;13.09;52.98
34742;BME280;20968;42.696;23.360;2023-03-21T04:44:01;95033.41;;;12.93;52.78
34742;BME280;20968;42.696;23.360;2023-03-21T04:46:26;95035.44;;;12.98;53.35
34742;BME280;20968;42.696;23.360;2023-03-21T04:48:52;95035.44;;;12.98;53.41
34742;BME280;20968;42.696;23.360;2023-03-21T04:51:17;95034.16;;;12.99;53.43
34742;BME280;20968;42.696;23.360;2023-03-21T04:53:43;95039.94;;;12.95;52.63
34742;BME280;20968;42.696;23.360;2023-03-21T04:56:13;95050.75;;;12.99;53.74
34742;BME280;20968;42.696;23.360;2023-03-21T04:58:38;95046.50;;;12.98;53.51
34742;BME280;20968;42.696;23.360;2023-03-21T05:01:05;95048.25;;;13.01;53.25
34742;BME280;20968;42.696;23.360;2023-03-21T05:03:31;95055.06;;;13.05;53.65
34742;BME280;20968;42.696;23.360;2023-03-21T05:05:59;95053.03;;;13.00;53.97
34742;BME280;20968;42.696;23.360;2023-03-21T05:08:24;95058.09;;;13.07;54.23
34742;BME280;20968;42.696;23.360;2023-03-21T05:10:50;95051.78;;;13.01;54.48
34742;BME280;20968;42.696;23.360;2023-03-21T05:13:16;95050.75;;;12.99;54.11
34742;BME280;20968;42.696;23.360;2023-03-21T05:15:41;95054.53;;;12.96;54.31
34742;BME280;20968;42.696;23.360;2023-03-21T05:18:07;95056.53;;;13.01;54.55
34742;BME280;20968;42.696;23.360;2023-03-21T05:20:39;95052.50;;;12.91;54.35
34742;BME280;20968;42.696;23.360;2023-03-21T05:23:11;95040.44;;;12.94;53.82
34742;BME280;20968;42.696;23.360;2023-03-21T05:25:37;95043.72;;;12.98;54.57
34742;BME280;20968;42.696;23.360;2023-03-21T05:28:05;95038.94;;;12.98;54.80
34742;BME280;20968;42.696;23.360;2023-03-21T05:30:32;95054.31;;;13.05;53.61
34742;BME280;20968;42.696;23.360;2023-03-21T05:32:58;95049.59;;;13.27;63.87
34742;BME280;20968;42.696;23.360;2023-03-21T05:35:24;95062.03;;;13.75;62.59
34742;BME280;20968;42.696;23.360;2023-03-21T05:37:50;95061.84;;;14.17;61.37
34742;BME280;20968;42.696;23.360;2023-03-21T05:40:15;95062.34;;;14.37;61.54
34742;BME280;20968;42.696;23.360;2023-03-21T05:42:41;95051.72;;;14.58;58.56
34742;BME280;20968;42.696;23.360;2023-03-21T05:45:06;95054.25;;;14.61;55.39
34742;BME280;20968;42.696;23.360;2023-03-21T05:47:32;95060.03;;;14.58;53.04
34742;BME280;20968;42.696;23.360;2023-03-21T05:49:57;95052.22;;;14.56;51.92
34742;BME280;20968;42.696;23.360;2023-03-21T05:52:23;95045.69;;;14.48;52.54
34742;BME280;20968;42.696;23.360;2023-03-21T05:54:49;95043.69;;;14.43;52.32
34742;BME280;20968;42.696;23.360;2023-03-21T05:57:15;95044.16;;;14.47;51.30
34742;BME280;20968;42.696;23.360;2023-03-21T06:02:49;95032.13;;;14.34;50.83
34742;BME280;20968;42.696;23.360;2023-03-21T06:05:15;95034.63;;;14.37;50.04
34742;BME280;20968;42.696;23.360;2023-03-21T06:07:40;95032.84;;;14.40;49.67
34742;BME280;20968;42.696;23.360;2023-03-21T06:10:06;95032.09;;;14.45;49.64
34742;BME280;20968;42.696;23.360;2023-03-21T06:12:32;95033.59;;;14.46;49.48
34742;BME280;20968;42.696;23.360;2023-03-21T06:14:57;95029.56;;;14.47;49.64
34742;BME280;20968;42.696;23.360;2023-03-21T06:17:23;95024.50;;;14.51;49.97
34742;BME280;20968;42.696;23.360;2023-03-21T06:19:51;95028.00;;;14.68;49.90
34742;BME280;20968;42.696;23.360;2023-03-21T06:22:17;95026.97;;;14.76;50.32
34742;BME280;20968;42.696;23.360;2023-03-21T06:24:42;95031.97;;;14.88;50.71
34742;BME280;20968;42.696;23.360;2023-03-21T06:27:08;95030.94;;;14.91;50.29
34742;BME280;20968;42.696;23.360;2023-03-21T06:29:33;95018.88;;;14.89;50.14
34742;BME280;20968;42.696;23.360;2023-03-21T06:31:59;95021.91;;;14.91;50.38
34742;BME280;20968;42.696;23.360;2023-03-21T06:34:25;95025.16;;;14.89;50.29
34742;BME280;20968;42.696;23.360;2023-03-21T06:36:51;95030.94;;;15.02;49.47
34742;BME280;20968;42.696;23.360;2023-03-21T06:39:19;95018.31;;;15.07;49.16
34742;BME280;20968;42.696;23.360;2023-03-21T06:41:47;95023.84;;;15.07;49.01
34742;BME280;20968;42.696;23.360;2023-03-21T06:44:14;95035.91;;;15.15;49.48
34742;BME280;20968;42.696;23.360;2023-03-21T06:46:40;95039.91;;;15.19;49.95
34742;BME280;20968;42.696;23.360;2023-03-21T06:49:05;95036.91;;;15.17;50.40
34742;BME280;20968;42.696;23.360;2023-03-21T06:51:31;95036.38;;;15.19;50.29
34742;BME280;20968;42.696;23.360;2023-03-21T06:53:56;95041.94;;;15.24;50.74
34742;BME280;20968;42.696;23.360;2023-03-21T06:56:22;95043.22;;;15.23;50.64
34742;BME280;20968;42.696;23.360;2023-03-21T06:58:47;95044.19;;;15.26;51.31
34742;BME280;20968;42.696;23.360;2023-03-21T07:01:13;95048.97;;;15.31;51.74
34742;BME280;20968;42.696;23.360;2023-03-21T07:03:38;95044.44;;;15.22;51.44
34742;BME280;20968;42.696;23.360;2023-03-21T07:06:08;95056.56;;;15.25;51.60
34742;BME280;20968;42.696;23.360;2023-03-21T07:08:38;95049.00;;;15.20;51.91
34742;BME280;20968;42.696;23.360;2023-03-21T07:11:04;95054.03;;;15.27;51.75
34742;BME280;20968;42.696;23.360;2023-03-21T07:13:30;95039.41;;;15.21;52.22
34742;BME280;20968;42.696;23.360;2023-03-21T07:15:56;95050.53;;;15.26;51.91
34742;BME280;20968;42.696;23.360;2023-03-21T07:18:22;95051.25;;;15.32;51.64
34742;BME280;20968;42.696;23.360;2023-03-21T07:20:49;95040.88;;;15.33;50.65
34742;BME280;20968;42.696;23.360;2023-03-21T07:23:21;95056.00;;;15.37;50.53
34742;BME280;20968;42.696;23.360;2023-03-21T07:25:49;95062.28;;;15.43;50.57
34742;BME280;20968;42.696;23.360;2023-03-21T07:28:15;95053.69;;;15.47;50.24
34742;BME280;20968;42.696;23.360;2023-03-21T07:30:41;95060.72;;;15.53;50.36
34742;BME280;20968;42.696;23.360;2023-03-21T07:33:07;95053.09;;;15.59;50.13
34742;BME280;20968;42.696;23.360;2023-03-21T07:35:33;95055.34;;;15.66;49.60
34742;BME280;20968;42.696;23.360;2023-03-21T07:38:00;95050.28;;;15.70;50.02
34742;BME280;20968;42.696;23.360;2023-03-21T07:40:25;95047.97;;;15.74;49.68
34742;BME280;20968;42.696;23.360;2023-03-21T07:42:51;95043.47;;;15.71;49.07
34742;BME280;20968;42.696;23.360;2023-03-21T07:45:16;95039.88;;;15.76;48.89
34742;BME280;20968;42.696;23.360;2023-03-21T07:47:46;95048.66;;;15.85;48.54
34742;BME280;20968;42.696;23.360;2023-03-21T07:50:12;95061.19;;;15.97;48.30
34742;BME280;20968;42.696;23.360;2023-03-21T07:52:38;95052.09;;;15.97;47.21
34742;BME280;20968;42.696;23.360;2023-03-21T07:55:03;95052.31;;;16.04;55.20
34742;BME280;20968;42.696;23.360;2023-03-21T07:57:29;95050.81;;;16.33;57.73
34742;BME280;20968;42.696;23.360;2023-03-21T07:59:54;95056.22;;;16.54;47.80
34742;BME280;20968;42.696;23.360;2023-03-21T08:02:20;95059.69;;;16.60;46.14
34742;BME280;20968;42.696;23.360;2023-03-21T08:04:45;95065.41;;;16.68;45.36
34742;BME280;20968;42.696;23.360;2023-03-21T08:07:11;95049.09;;;16.59;45.02
34742;BME280;20968;42.696;23.360;2023-03-21T08:09:37;95047.34;;;16.56;45.17
34742;BME280;20968;42.696;23.360;2023-03-21T08:12:04;95045.88;;;16.49;44.97
34742;BME280;20968;42.696;23.360;2023-03-21T08:14:29;95043.72;;;16.37;44.04
34742;BME280;20968;42.696;23.360;2023-03-21T08:16:55;95054.53;;;16.40;44.64
34742;BME280;20968;42.696;23.360;2023-03-21T08:19:20;95054.91;;;16.55;44.51
34742;BME280;20968;42.696;23.360;2023-03-21T08:21:49;95049.47;;;16.44;44.10
34742;BME280;20968;42.696;23.360;2023-03-21T08:24:15;95054.66;;;16.30;44.52
34742;BME280;20968;42.696;23.360;2023-03-21T08:26:41;95040.50;;;16.28;44.82
34742;BME280;20968;42.696;23.360;2023-03-21T08:29:08;95039.91;;;16.40;44.69
34742;BME280;20968;42.696;23.360;2023-03-21T08:31:34;95032.78;;;16.44;44.61
34742;BME280;20968;42.696;23.360;2023-03-21T08:34:00;95040.31;;;16.49;44.62
34742;BME280;20968;42.696;23.360;2023-03-21T08:36:26;95027.09;;;16.55;44.50
34742;BME280;20968;42.696;23.360;2023-03-21T08:38:51;95039.53;;;16.54;43.39
34742;BME280;20968;42.696;23.360;2023-03-21T08:41:21;95033.16;;;16.59;44.35
34742;BME280;20968;42.696;23.360;2023-03-21T08:43:48;95042.41;;;16.67;43.92
34742;BME280;20968;42.696;23.360;2023-03-21T08:46:15;95046.31;;;16.59;43.80
34742;BME280;20968;42.696;23.360;2023-03-21T08:48:40;95038.50;;;16.52;43.72
34742;BME280;20968;42.696;23.360;2023-03-21T08:51:06;95039.84;;;16.45;43.65
34742;BME280;20968;42.696;23.360;2023-03-21T08:53:32;95038.81;;;16.48;43.85
34742;BME280;20968;42.696;23.360;2023-03-21T08:55:58;95037.31;;;16.47;43.80
34742;BME280;20968;42.696;23.360;2023-03-21T08:58:23;95031.22;;;16.49;44.30
34742;BME280;20968;42.696;23.360;2023-03-21T09:00:52;95026.25;;;16.42;44.04
34742;BME280;20968;42.696;23.360;2023-03-21T09:03:17;95021.34;;;16.53;44.20
34742;BME280;20968;42.696;23.360;2023-03-21T09:05:45;95029.88;;;16.79;43.66
34742;BME280;20968;42.696;23.360;2023-03-21T09:08:11;95028.81;;;16.88;43.94
34742;BME280;20968;42.696;23.360;2023-03-21T09:10:43;95028.13;;;16.82;43.77
34742;BME280;20968;42.696;23.360;2023-03-21T09:13:08;95021.25;;;16.83;43.80
34742;BME280;20968;42.696;23.360;2023-03-21T09:15:33;95024.22;;;16.90;42.99
34742;BME280;20968;42.696;23.360;2023-03-21T09:17:59;95026.66;;;16.99;43.48
34742;BME280;20968;42.696;23.360;2023-03-21T09:20:37;95014.00;;;16.98;41.95
34742;BME280;20968;42.696;23.360;2023-03-21T09:23:03;95008.28;;;17.09;42.34
34742;BME280;20968;42.696;23.360;2023-03-21T09:25:29;95001.69;;;17.12;41.73
34742;BME280;20968;42.696;23.360;2023-03-21T09:27:55;95006.59;;;17.06;42.40
34742;BME280;20968;42.696;23.360;2023-03-21T09:30:22;95004.66;;;17.19;45.29
34742;BME280;20968;42.696;23.360;2023-03-21T09:32:48;94998.41;;;17.32;43.43
34742;BME280;20968;42.696;23.360;2023-03-21T09:35:19;94993.00;;;17.39;43.04
34742;BME280;20968;42.696;23.360;2023-03-21T09:37:46;94995.13;;;17.52;43.62
34742;BME280;20968;42.696;23.360;2023-03-21T09:40:22;94993.75;;;17.58;42.62
34742;BME280;20968;42.696;23.360;2023-03-21T09:45:44;94979.38;;;17.73;42.48
34742;BME280;20968;42.696;23.360;2023-03-21T09:48:18;94986.47;;;17.87;41.37
34742;BME280;20968;42.696;23.360;2023-03-21T09:50:54;94969.66;;;17.79;42.48
34742;BME280;20968;42.696;23.360;2023-03-21T09:53:26;94970.22;;;17.91;42.08
34742;BME280;20968;42.696;23.360;2023-03-21T09:55:53;94960.13;;;17.88;42.33
34742;BME280;20968;42.696;23.360;2023-03-21T09:58:29;94972.16;;;17.95;42.15
34742;BME280;20968;42.696;23.360;2023-03-21T10:03:32;94982.88;;;17.92;41.75
34742;BME280;20968;42.696;23.360;2023-03-21T10:06:09;94989.03;;;17.85;42.22
34742;BME280;20968;42.696;23.360;2023-03-21T10:08:39;94980.59;;;17.90;42.08
34742;BME280;20968;42.696;23.360;2023-03-21T10:11:09;94963.72;;;18.01;42.78
34742;BME280;20968;42.696;23.360;2023-03-21T10:13:43;94950.13;;;18.10;42.39
34742;BME280;20968;42.696;23.360;2023-03-21T10:16:16;94958.97;;;18.27;42.31
34742;BME280;20968;42.696;23.360;2023-03-21T10:18:44;94953.50;;;18.35;41.34
34742;BME280;20968;42.696;23.360;2023-03-21T10:21:20;94949.38;;;18.67;40.70
34742;BME280;20968;42.696;23.360;2023-03-21T10:23:47;94941.22;;;18.82;41.03
34742;BME280;20968;42.696;23.360;2023-03-21T10:26:13;94945.78;;;19.05;39.89
34742;BME280;20968;42.696;23.360;2023-03-21T10:28:39;94933.22;;;19.25;39.95
34742;BME280;20968;42.696;23.360;2023-03-21T10:31:08;94947.41;;;19.60;39.22
34742;BME280;20968;42.696;23.360;2023-03-21T10:33:38;94945.06;;;19.84;38.01
34742;BME280;20968;42.696;23.360;2023-03-21T10:36:16;94929.56;;;19.96;36.82
34742;BME280;20968;42.696;23.360;2023-03-21T10:38:47;94940.94;;;20.19;37.85
34742;BME280;20968;42.696;23.360;2023-03-21T10:41:13;94951.44;;;20.26;36.80
34742;BME280;20968;42.696;23.360;2023-03-21T10:43:42;94954.84;;;20.11;35.89
34742;BME280;20968;42.696;23.360;2023-03-21T10:46:16;94949.94;;;20.04;35.03
34742;BME280;20968;42.696;23.360;2023-03-21T10:48:49;94952.94;;;20.06;35.10
34742;BME280;20968;42.696;23.360;2023-03-21T10:51:20;94948.97;;;20.02;35.61
34742;BME280;20968;42.696;23.360;2023-03-21T10:53:51;94939.75;;;20.14;36.76
34742;BME280;20968;42.696;23.360;2023-03-21T10:56:34;94943.59;;;20.24;36.74
34742;BME280;20968;42.696;23.360;2023-03-21T10:59:01;94944.63;;;20.34;36.55
34742;BME280;20968;42.696;23.360;2023-03-21T11:01:35;94940.69;;;20.37;37.16
34742;BME280;20968;42.696;23.360;2023-03-21T11:04:20;94936.94;;;20.55;35.52
34742;BME280;20968;42.696;23.360;2023-03-21T11:07:05;94929.81;;;20.54;35.84
34742;BME280;20968;42.696;23.360;2023-03-21T11:09:45;94931.44;;;20.70;35.68
34742;BME280;20968;42.696;23.360;2023-03-21T11:12:32;94920.72;;;20.61;35.13
34742;BME280;20968;42.696;23.360;2023-03-21T11:15:33;94922.94;;;20.55;35.17
34742;BME280;20968;42.696;23.360;2023-03-21T11:18:23;94912.44;;;20.48;35.36
34742;BME280;20968;42.696;23.360;2023-03-21T11:20:55;94917.44;;;20.42;34.93
34742;BME280;20968;42.696;23.360;2023-03-21T11:23:25;94908.94;;;20.55;35.19
34742;BME280;20968;42.696;23.360;2023-03-21T11:25:53;94905.03;;;20.58;34.84
34742;BME280;20968;42.696;23.360;2023-03-21T11:28:22;94904.06;;;20.76;35.16
34742;BME280;20968;42.696;23.360;2023-03-21T11:30:55;94905.06;;;20.86;34.57
34742;BME280;20968;42.696;23.360;2023-03-21T11:33:24;94894.06;;;20.88;35.53
34742;BME280;20968;42.696;23.360;2023-03-21T11:36:31;94893.34;;;20.95;35.37
34742;BME280;20968;42.696;23.360;2023-03-21T11:39:33;94885.47;;;20.93;35.72
34742;BME280;20968;42.696;23.360;2023-03-21T11:42:01;94877.84;;;20.94;34.51
34742;BME280;20968;42.696;23.360;2023-03-21T11:44:42;94880.41;;;20.84;35.39
34742;BME280;20968;42.696;23.360;2023-03-21T11:47:09;94867.69;;;20.55;35.01
34742;BME280;20968;42.696;23.360;2023-03-21T11:49:35;94874.16;;;20.71;35.36
34742;BME280;20968;42.696;23.360;2023-03-21T11:52:19;94866.69;;;20.73;35.49
34742;BME280;20968;42.696;23.360;2023-03-21T11:55:12;94857.97;;;20.49;34.45
34742;BME280;20968;42.696;23.360;2023-03-21T12:00:33;94858.19;;;20.03;36.23
34742;BME280;20968;42.696;23.360;2023-03-21T12:05:53;94863.06;;;20.30;34.54
34742;BME280;20968;42.696;23.360;2023-03-21T12:14:16;94849.88;;;20.38;35.03
34742;BME280;20968;42.696;23.360;2023-03-21T12:31:11;94828.81;;;20.09;34.77
34742;BME280;20968;42.696;23.360;2023-03-21T12:44:28;94800.94;;;19.76;34.99
34742;BME280;20968;42.696;23.360;2023-03-21T12:46:59;94804.94;;;19.88;35.45
34742;BME280;20968;42.696;23.360;2023-03-21T12:49:30;94799.69;;;19.84;34.61
34742;BME280;20968;42.696;23.360;2023-03-21T12:52:10;94806.53;;;19.96;35.56
34742;BME280;20968;42.696;23.360;2023-03-21T12:54:47;94807.59;;;19.93;34.34
34742;BME280;20968;42.696;23.360;2023-03-21T12:57:47;94797.94;;;19.94;34.33
34742;BME280;20968;42.696;23.360;2023-03-21T13:02:47;94790.72;;;19.99;34.56
34742;BME280;20968;42.696;23.360;2023-03-21T13:05:30;94779.63;;;19.93;34.54
34742;BME280;20968;42.696;23.360;2023-03-21T13:08:23;94793.72;;;20.01;34.84
34742;BME280;20968;42.696;23.360;2023-03-21T13:10:51;94790.00;;;20.06;34.55
34742;BME280;20968;42.696;23.360;2023-03-21T13:15:50;94783.06;;;19.99;34.60
34742;BME280;20968;42.696;23.360;2023-03-21T13:21:10;94781.03;;;20.00;35.87
34742;BME280;20968;42.696;23.360;2023-03-21T13:23:38;94774.06;;;19.93;35.91
34742;BME280;20968;42.696;23.360;2023-03-21T13:26:08;94783.28;;;20.01;35.97
34742;BME280;20968;42.696;23.360;2023-03-21T13:28:38;94779.56;;;20.06;36.31
34742;BME280;20968;42.696;23.360;2023-03-21T13:31:19;94767.06;;;20.00;36.55
34742;BME280;20968;42.696;23.360;2023-03-21T13:33:50;94772.09;;;20.01;36.64
34742;BME280;20968;42.696;23.360;2023-03-21T13:36:27;94763.97;;;19.90;37.02
34742;BME280;20968;42.696;23.360;2023-03-21T13:38:58;94761.25;;;19.77;36.13
34742;BME280;20968;42.696;23.360;2023-03-21T13:41:31;94765.00;;;19.80;36.88
34742;BME280;20968;42.696;23.360;2023-03-21T13:59:22;94742.78;;;19.47;38.45
34742;BME280;20968;42.696;23.360;2023-03-21T14:02:27;94746.03;;;19.38;38.79
34742;BME280;20968;42.696;23.360;2023-03-21T14:05:05;94750.47;;;19.33;39.13
34742;BME280;20968;42.696;23.360;2023-03-21T14:07:42;94746.94;;;19.33;39.32
34742;BME280;20968;42.696;23.360;2023-03-21T14:10:21;94747.28;;;19.29;39.06
34742;BME280;20968;42.696;23.360;2023-03-21T14:12:48;94756.00;;;19.26;38.99
34742;BME280;20968;42.696;23.360;2023-03-21T14:15:19;94747.03;;;19.20;39.67
34742;BME280;20968;42.696;23.360;2023-03-21T14:20:27;94746.69;;;19.23;38.95
34742;BME280;20968;42.696;23.360;2023-03-21T14:22:53;94741.66;;;19.09;38.76
34742;BME280;20968;42.696;23.360;2023-03-21T14:25:21;94743.59;;;19.14;39.02
34742;BME280;20968;42.696;23.360;2023-03-21T14:27:49;94739.44;;;19.07;39.44
34742;BME280;20968;42.696;23.360;2023-03-21T14:30:26;94741.13;;;19.10;39.04
34742;BME280;20968;42.696;23.360;2023-03-21T14:32:59;94730.56;;;18.96;39.36
34742;BME280;20968;42.696;23.360;2023-03-21T14:35:31;94732.88;;;18.84;39.83
34742;BME280;20968;42.696;23.360;2023-03-21T14:38:03;94739.19;;;18.85;39.44
34742;BME280;20968;42.696;23.360;2023-03-21T14:40:30;94737.69;;;18.84;39.92
34742;BME280;20968;42.696;23.360;2023-03-21T14:42:55;94737.41;;;18.74;39.70
34742;BME280;20968;42.696;23.360;2023-03-21T14:45:24;94734.25;;;18.58;40.46